Time;durP1;ratioP1;P1;durP2;ratioP2;P2;SDS_P1;SDS_P2;PMS_P1;PMS_P2;Temp;Humidity;BMP_temperature;BMP_pressure;BME280_temperature;BME280_humidity;BME280_pressure;Samples;Min_cycle;Max_cycle;Signal;HPM_P1;HPM_P2
2023/06/16 00:02:07;;;;;;;3.83;3.22;;;16.40;94.00;;;;;;5035757;28;20480;-81
2023/06/16 00:04:35;;;;;;;3.43;3.13;;;16.40;94.30;;;;;;5033402;28;20227;-82
2023/06/16 00:07:02;;;;;;;4.65;3.33;;;16.40;94.30;;;;;;5029615;28;20221;-81
2023/06/16 00:09:28;;;;;;;6.07;3.20;;;16.40;94.10;;;;;;5033965;28;20224;-82
2023/06/16 00:11:55;;;;;;;5.45;3.25;;;16.40;94.10;;;;;;5033891;28;20680;-82
2023/06/16 00:14:22;;;;;;;6.25;3.50;;;16.40;94.00;;;;;;5030682;28;20217;-80
2023/06/16 00:16:49;;;;;;;4.72;3.30;;;16.40;94.00;;;;;;5038797;28;20216;-80
2023/06/16 00:19:17;;;;;;;4.93;3.35;;;16.50;94.20;;;;;;5036557;28;20226;-80
2023/06/16 00:21:45;;;;;;;5.53;3.23;;;16.50;94.40;;;;;;5037251;28;20842;-79
2023/06/16 00:24:12;;;;;;;5.47;3.63;;;16.50;94.50;;;;;;5036629;28;20242;-80
2023/06/16 00:26:39;;;;;;;4.07;3.47;;;16.50;94.60;;;;;;5033981;28;20220;-79
2023/06/16 00:29:07;;;;;;;4.57;3.47;;;16.50;94.40;;;;;;5040652;28;20724;-80
2023/06/16 00:31:34;;;;;;;3.90;3.50;;;16.50;94.40;;;;;;5028443;28;20224;-79
2023/06/16 00:34:01;;;;;;;4.15;3.40;;;16.50;94.30;;;;;;5027058;28;20219;-80
2023/06/16 00:36:30;;;;;;;3.83;3.17;;;16.50;94.50;;;;;;5034788;28;20215;-84
2023/06/16 00:38:58;;;;;;;5.50;3.60;;;16.50;94.50;;;;;;5026593;28;20228;-82
2023/06/16 00:41:25;;;;;;;4.68;3.25;;;16.50;94.40;;;;;;5038485;28;20262;-83
2023/06/16 00:43:53;;;;;;;5.23;3.40;;;16.50;94.30;;;;;;5039019;28;20319;-80
2023/06/16 00:46:26;;;;;;;3.97;3.10;;;16.50;94.40;;;;;;5036778;28;20235;-80
2023/06/16 00:48:53;;;;;;;4.90;3.30;;;16.50;94.70;;;;;;5029096;28;20225;-81
2023/06/16 00:51:20;;;;;;;3.87;3.17;;;16.60;94.60;;;;;;5032428;28;20222;-80
2023/06/16 00:53:49;;;;;;;3.50;3.15;;;16.50;94.60;;;;;;5030807;28;20706;-80
2023/06/16 00:56:19;;;;;;;5.30;3.63;;;16.50;94.90;;;;;;5036265;28;20224;-81
2023/06/16 00:58:47;;;;;;;4.00;3.47;;;16.50;94.90;;;;;;5036594;28;20225;-80
2023/06/16 01:01:14;;;;;;;4.30;3.67;;;16.60;94.90;;;;;;5033244;28;20219;-81
2023/06/16 01:03:42;;;;;;;4.60;3.47;;;16.50;94.70;;;;;;5029656;28;20232;-80
2023/06/16 01:06:17;;;;;;;4.15;3.63;;;16.50;94.80;;;;;;5034534;28;20251;-80
2023/06/16 01:08:49;;;;;;;4.47;3.60;;;16.50;95.10;;;;;;5039916;28;20304;-80
2023/06/16 01:11:27;;;;;;;5.18;3.63;;;16.60;95.00;;;;;;5039090;28;20255;-80
2023/06/16 01:14:03;;;;;;;5.43;3.33;;;16.50;95.20;;;;;;5033556;28;20236;-80
2023/06/16 01:16:31;;;;;;;5.07;3.88;;;16.60;95.10;;;;;;5034661;28;20232;-80
2023/06/16 01:19:03;;;;;;;5.07;3.08;;;16.50;95.30;;;;;;5039210;28;20221;-80
2023/06/16 01:21:40;;;;;;;4.10;3.42;;;16.50;95.80;;;;;;5036623;28;20224;-81
2023/06/16 01:24:13;;;;;;;3.65;3.22;;;16.60;96.10;;;;;;5038183;28;20329;-82
2023/06/16 01:26:45;;;;;;;5.43;3.70;;;16.50;96.10;;;;;;5054611;28;20366;-82
2023/06/16 01:29:14;;;;;;;4.97;3.30;;;16.50;96.20;;;;;;5037770;28;20843;-81
2023/06/16 01:31:42;;;;;;;6.18;3.22;;;16.40;96.20;;;;;;5039438;28;20773;-81
2023/06/16 01:34:10;;;;;;;4.10;3.45;;;16.40;96.70;;;;;;5038755;28;20224;-81
2023/06/16 01:36:40;;;;;;;3.83;3.13;;;16.40;96.60;;;;;;5037567;28;20248;-80
2023/06/16 01:39:09;;;;;;;3.92;3.50;;;16.40;96.90;;;;;;5040889;28;20315;-81
2023/06/16 01:41:37;;;;;;;3.53;3.23;;;16.30;96.80;;;;;;5045540;28;20724;-81
2023/06/16 01:44:05;;;;;;;3.80;3.40;;;16.20;97.10;;;;;;5039552;28;21035;-80
2023/06/16 01:46:32;;;;;;;3.95;3.55;;;16.20;97.20;;;;;;5037034;28;20232;-80
2023/06/16 01:48:59;;;;;;;3.87;3.43;;;16.10;97.40;;;;;;5040277;28;20284;-80
2023/06/16 01:51:28;;;;;;;5.10;3.50;;;16.10;97.40;;;;;;5033195;28;20871;-80
2023/06/16 01:53:56;;;;;;;5.47;3.30;;;16.10;97.30;;;;;;5041845;28;20311;-80
2023/06/16 01:56:25;;;;;;;3.95;3.45;;;16.10;97.40;;;;;;5034968;28;20288;-80
2023/06/16 01:58:52;;;;;;;6.13;3.70;;;16.10;97.80;;;;;;5040381;28;20243;-79
2023/06/16 02:01:25;;;;;;;4.27;3.73;;;16.00;97.60;;;;;;5039813;28;20224;-80
2023/06/16 02:03:55;;;;;;;5.85;3.70;;;16.00;97.70;;;;;;5036448;28;20697;-80
2023/06/16 02:06:26;;;;;;;5.38;3.88;;;16.00;97.90;;;;;;5039904;28;20244;-80
2023/06/16 02:08:56;;;;;;;6.93;3.63;;;16.00;97.80;;;;;;5034741;28;20581;-80
2023/06/16 02:11:24;;;;;;;3.90;3.13;;;16.00;97.90;;;;;;5036652;28;20216;-79
2023/06/16 02:13:52;;;;;;;5.13;3.40;;;16.00;97.70;;;;;;5040782;28;20483;-80
2023/06/16 02:16:19;;;;;;;3.97;3.33;;;16.00;97.60;;;;;;5039487;28;21002;-80
2023/06/16 02:18:49;;;;;;;6.93;3.63;;;16.00;97.60;;;;;;5033881;28;20216;-80
2023/06/16 02:21:16;;;;;;;7.17;4.00;;;16.00;97.60;;;;;;5049177;28;20225;-81
2023/06/16 02:23:43;;;;;;;3.67;3.30;;;16.00;97.60;;;;;;5039607;28;20297;-81
2023/06/16 02:26:10;;;;;;;4.05;3.10;;;16.00;97.80;;;;;;5041471;28;20224;-81
2023/06/16 02:28:38;;;;;;;4.35;3.40;;;16.00;97.90;;;;;;5042555;28;20258;-82
2023/06/16 02:31:06;;;;;;;3.90;3.50;;;16.00;98.00;;;;;;5037946;28;20223;-81
2023/06/16 02:33:33;;;;;;;4.43;3.70;;;16.00;98.30;;;;;;5036271;28;20232;-81
2023/06/16 02:35:59;;;;;;;4.75;4.20;;;16.00;98.50;;;;;;5040230;28;20240;-81
2023/06/16 02:38:26;;;;;;;4.88;4.00;;;16.00;98.60;;;;;;5041630;28;20281;-81
2023/06/16 02:40:53;;;;;;;6.22;4.05;;;16.00;98.60;;;;;;5036855;28;20212;-82
2023/06/16 02:43:20;;;;;;;5.93;3.72;;;16.00;98.70;;;;;;5034367;28;20285;-82
2023/06/16 02:45:49;;;;;;;4.70;3.53;;;16.00;98.90;;;;;;5035726;28;20746;-80
2023/06/16 02:48:16;;;;;;;7.82;4.20;;;16.00;99.00;;;;;;5038404;28;20275;-81
2023/06/16 02:50:44;;;;;;;5.93;3.92;;;16.00;98.90;;;;;;5039587;28;20216;-80
2023/06/16 02:53:15;;;;;;;5.63;3.63;;;16.00;98.90;;;;;;5037145;28;20236;-81
2023/06/16 02:55:44;;;;;;;5.80;4.00;;;16.00;98.90;;;;;;5050262;28;21023;-81
2023/06/16 02:58:10;;;;;;;6.35;4.13;;;15.90;98.90;;;;;;5050676;28;20224;-82
2023/06/16 03:00:37;;;;;;;6.47;4.30;;;15.90;98.90;;;;;;5064073;28;20704;-82
2023/06/16 03:03:16;;;;;;;6.22;4.70;;;15.90;98.90;;;;;;5070432;28;20228;-82
2023/06/16 03:05:46;;;;;;;3.97;3.57;;;15.90;98.90;;;;;;5057535;28;20216;-83
2023/06/16 03:08:14;;;;;;;5.78;4.65;;;15.90;99.00;;;;;;5041537;28;20984;-82
2023/06/16 03:10:41;;;;;;;6.57;4.40;;;15.90;99.10;;;;;;5044691;28;20258;-83
2023/06/16 03:13:11;;;;;;;5.90;4.37;;;15.90;99.20;;;;;;5035705;28;20225;-83
2023/06/16 03:15:38;;;;;;;5.07;4.05;;;15.90;99.20;;;;;;5041897;28;20231;-82
2023/06/16 03:18:05;;;;;;;5.60;3.83;;;15.90;99.10;;;;;;5048284;28;20609;-82
2023/06/16 03:20:35;;;;;;;4.93;3.70;;;15.90;99.10;;;;;;5047446;28;20220;-82
2023/06/16 03:23:11;;;;;;;4.13;3.27;;;15.90;99.40;;;;;;5048393;28;20223;-82
2023/06/16 03:25:39;;;;;;;4.10;3.70;;;15.90;99.30;;;;;;5049400;28;20247;-81
2023/06/16 03:28:06;;;;;;;6.00;3.60;;;16.00;99.40;;;;;;5065272;28;20439;-84
2023/06/16 03:30:35;;;;;;;4.60;3.55;;;16.00;99.60;;;;;;5058433;28;20225;-83
2023/06/16 03:33:05;;;;;;;7.32;3.83;;;16.00;99.70;;;;;;5041445;28;20227;-82
2023/06/16 03:35:36;;;;;;;4.53;3.73;;;16.00;99.60;;;;;;5041087;28;20667;-82
2023/06/16 03:38:05;;;;;;;6.37;3.70;;;15.90;99.70;;;;;;5037638;28;20311;-82
2023/06/16 03:40:34;;;;;;;5.70;3.75;;;15.90;99.50;;;;;;5031692;28;20228;-82
2023/06/16 03:43:02;;;;;;;5.93;4.32;;;15.90;99.40;;;;;;5042507;28;20785;-83
2023/06/16 03:45:29;;;;;;;4.85;3.88;;;15.90;99.30;;;;;;5038601;28;20259;-83
2023/06/16 03:47:57;;;;;;;6.93;4.38;;;15.90;99.40;;;;;;5048361;28;20227;-80
2023/06/16 03:50:25;;;;;;;4.90;4.03;;;15.90;99.40;;;;;;5050691;28;21721;-82
2023/06/16 03:52:53;;;;;;;4.97;4.00;;;15.80;99.70;;;;;;5052190;28;20236;-81
2023/06/16 03:55:20;;;;;;;5.88;4.00;;;15.80;99.70;;;;;;5037092;28;20228;-81
2023/06/16 03:57:48;;;;;;;4.67;3.87;;;15.80;99.90;;;;;;5034598;28;20304;-83
2023/06/16 04:00:15;;;;;;;5.10;3.85;;;15.70;99.90;;;;;;5034827;28;20212;-84
2023/06/16 04:02:46;;;;;;;5.80;4.03;;;15.70;99.90;;;;;;5036264;28;20227;-82
2023/06/16 04:05:23;;;;;;;5.85;4.25;;;15.60;99.90;;;;;;5057384;28;20238;-84
2023/06/16 04:07:54;;;;;;;5.40;3.97;;;15.60;99.90;;;;;;5041816;28;20251;-82
2023/06/16 04:10:20;;;;;;;4.23;3.63;;;15.50;99.90;;;;;;5031233;28;21735;-82
2023/06/16 04:12:47;;;;;;;8.15;4.20;;;15.50;99.90;;;;;;5031399;28;20237;-82
2023/06/16 04:15:14;;;;;;;5.13;3.90;;;15.50;99.90;;;;;;5046182;28;20223;-81
2023/06/16 04:17:41;;;;;;;4.28;3.88;;;15.40;99.90;;;;;;5036022;28;20256;-83
2023/06/16 04:20:11;;;;;;;4.45;3.42;;;15.40;99.90;;;;;;5060734;28;20227;-81
2023/06/16 04:22:39;;;;;;;4.60;3.75;;;15.40;99.90;;;;;;5043949;28;20824;-80
2023/06/16 04:25:09;;;;;;;5.30;3.80;;;15.40;99.90;;;;;;5035461;28;20219;-80
2023/06/16 04:27:37;;;;;;;4.57;3.83;;;15.40;99.90;;;;;;5036184;28;20239;-80
2023/06/16 04:30:06;;;;;;;5.82;3.88;;;15.40;99.90;;;;;;5044706;28;20216;-81
2023/06/16 04:32:35;;;;;;;5.27;4.07;;;15.30;99.90;;;;;;5032009;28;20225;-79
2023/06/16 04:35:04;;;;;;;5.10;3.85;;;15.30;99.90;;;;;;5043318;28;20232;-79
2023/06/16 04:37:32;;;;;;;4.97;4.10;;;15.30;99.90;;;;;;5043367;28;20311;-79
2023/06/16 04:40:00;;;;;;;6.88;4.03;;;15.30;99.90;;;;;;5036347;28;20217;-78
2023/06/16 04:42:29;;;;;;;5.73;4.10;;;15.30;99.90;;;;;;5034076;28;20279;-80
2023/06/16 04:44:56;;;;;;;7.50;4.23;;;15.40;99.90;;;;;;5035395;28;20212;-79
2023/06/16 04:47:24;;;;;;;5.85;4.00;;;15.50;99.90;;;;;;5041155;28;20247;-80
2023/06/16 04:49:51;;;;;;;6.35;4.45;;;15.40;99.90;;;;;;5034538;28;20221;-79
2023/06/16 04:52:18;;;;;;;6.03;4.47;;;15.50;99.90;;;;;;5032584;28;20232;-79
2023/06/16 04:54:45;;;;;;;6.68;4.25;;;15.60;99.90;;;;;;5035233;28;20224;-79
2023/06/16 04:57:13;;;;;;;6.95;4.35;;;15.60;99.90;;;;;;5049025;28;20239;-79
2023/06/16 04:59:41;;;;;;;5.43;4.68;;;15.80;99.90;;;;;;5041404;28;20696;-80
2023/06/16 05:02:08;;;;;;;5.68;4.88;;;15.80;99.90;;;;;;5035975;28;20693;-79
2023/06/16 05:04:35;;;;;;;7.13;5.00;;;15.90;99.90;;;;;;5041236;28;20297;-78
2023/06/16 05:07:03;;;;;;;6.28;4.78;;;16.00;99.90;;;;;;5044091;28;20270;-77
2023/06/16 05:09:30;;;;;;;5.35;4.07;;;16.20;99.90;;;;;;5040642;28;20232;-79
2023/06/16 05:11:56;;;;;;;6.88;4.60;;;16.30;99.90;;;;;;5041535;28;20270;-80
2023/06/16 05:14:23;;;;;;;4.60;4.07;;;16.40;99.90;;;;;;5040144;28;20339;-78
2023/06/16 05:16:52;;;;;;;5.72;4.60;;;16.40;99.90;;;;;;5045605;28;20217;-77
2023/06/16 05:19:18;;;;;;;8.38;4.60;;;16.50;99.90;;;;;;5035035;28;20762;-78
2023/06/16 05:21:54;;;;;;;4.95;4.30;;;16.60;99.90;;;;;;5049037;28;20303;-77
2023/06/16 05:24:21;;;;;;;5.80;4.60;;;16.60;99.90;;;;;;5038978;28;20430;-78
2023/06/16 05:26:48;;;;;;;5.65;4.22;;;16.70;99.90;;;;;;5044761;28;20251;-78
2023/06/16 05:29:15;;;;;;;6.85;5.15;;;16.70;99.90;;;;;;5044325;28;20243;-75
2023/06/16 05:31:42;;;;;;;5.32;4.63;;;16.80;99.90;;;;;;5035793;28;20316;-77
2023/06/16 05:34:10;;;;;;;6.72;4.82;;;16.80;99.90;;;;;;5027305;28;20232;-77
2023/06/16 05:36:36;;;;;;;8.95;5.22;;;16.80;99.90;;;;;;5019322;28;20815;-79
2023/06/16 05:39:07;;;;;;;8.20;4.75;;;16.90;99.90;;;;;;5043855;28;20695;-79
2023/06/16 05:41:35;;;;;;;9.07;5.40;;;16.90;99.90;;;;;;5035315;28;20773;-79
2023/06/16 05:44:02;;;;;;;8.35;6.07;;;17.00;99.90;;;;;;5034249;28;20224;-80
2023/06/16 05:46:29;;;;;;;8.85;5.75;;;17.10;99.90;;;;;;5036167;28;20566;-78
2023/06/16 05:48:58;;;;;;;10.13;6.03;;;17.10;99.90;;;;;;5042161;28;20306;-79
2023/06/16 05:51:26;;;;;;;8.57;5.95;;;17.20;99.90;;;;;;5035090;28;20717;-80
2023/06/16 05:53:55;;;;;;;7.80;6.32;;;17.40;99.90;;;;;;5035628;28;20221;-80
2023/06/16 05:56:24;;;;;;;7.30;6.25;;;17.50;99.90;;;;;;5039468;28;20227;-79
2023/06/16 05:58:51;;;;;;;8.32;6.70;;;17.60;99.90;;;;;;5039151;28;20720;-78
2023/06/16 06:01:17;;;;;;;9.23;6.10;;;17.70;99.90;;;;;;5043394;28;20292;-80
2023/06/16 06:03:45;;;;;;;6.70;5.97;;;17.80;99.90;;;;;;5037136;28;20620;-79
2023/06/16 06:06:13;;;;;;;7.68;6.65;;;17.90;99.90;;;;;;5040286;28;20279;-78
2023/06/16 06:08:41;;;;;;;10.55;7.28;;;17.90;99.90;;;;;;5038101;28;20224;-79
2023/06/16 06:11:08;;;;;;;12.75;7.63;;;18.00;99.90;;;;;;5043241;28;20224;-79
2023/06/16 06:13:35;;;;;;;11.90;7.70;;;18.10;99.90;;;;;;5040853;28;20604;-79
2023/06/16 06:16:02;;;;;;;10.68;7.47;;;18.20;99.90;;;;;;5042457;28;20278;-80
2023/06/16 06:18:29;;;;;;;9.10;7.50;;;18.20;99.90;;;;;;5042558;28;20216;-79
2023/06/16 06:20:56;;;;;;;8.05;7.07;;;18.30;99.90;;;;;;5037289;28;20995;-81
2023/06/16 06:23:24;;;;;;;10.05;7.40;;;18.40;99.90;;;;;;5042289;28;20293;-79
2023/06/16 06:25:52;;;;;;;8.18;7.25;;;18.50;99.90;;;;;;5039769;28;20840;-79
2023/06/16 06:28:23;;;;;;;11.15;7.30;;;18.60;99.90;;;;;;5035994;28;20637;-79
2023/06/16 06:30:49;;;;;;;7.43;6.50;;;18.70;99.80;;;;;;5033363;28;20639;-78
2023/06/16 06:33:17;;;;;;;9.65;6.90;;;18.80;99.50;;;;;;5039216;28;20228;-80
2023/06/16 06:35:44;;;;;;;8.15;6.45;;;18.90;99.10;;;;;;5035335;28;20224;-80
2023/06/16 06:38:12;;;;;;;8.05;6.40;;;19.10;99.00;;;;;;5038037;28;20224;-79
2023/06/16 06:40:39;;;;;;;8.00;6.68;;;19.20;98.70;;;;;;5039954;28;20252;-80
2023/06/16 06:43:08;;;;;;;7.07;5.78;;;19.30;98.50;;;;;;5055801;28;20216;-79
2023/06/16 06:46:01;;;;;;;7.53;6.38;;;19.30;98.00;;;;;;5042027;28;20220;-79
2023/06/16 06:48:27;;;;;;;7.45;6.05;;;19.40;97.80;;;;;;5031968;28;21018;-79
2023/06/16 06:50:58;;;;;;;7.22;5.90;;;19.50;97.40;;;;;;5030984;28;20312;-80
2023/06/16 06:53:25;;;;;;;10.85;5.75;;;19.60;97.50;;;;;;5033949;28;20243;-81
2023/06/16 06:55:51;;;;;;;10.65;5.55;;;19.70;97.10;;;;;;5036448;28;20219;-80
2023/06/16 06:58:19;;;;;;;8.15;5.15;;;19.80;97.00;;;;;;5033216;28;20223;-80
2023/06/16 07:00:46;;;;;;;8.85;5.30;;;19.90;96.70;;;;;;5033875;28;20231;-82
2023/06/16 07:03:13;;;;;;;12.57;6.13;;;20.00;96.60;;;;;;5038273;28;20251;-81
2023/06/16 07:05:40;;;;;;;7.35;6.03;;;20.20;96.10;;;;;;5043784;28;20234;-83
2023/06/16 07:08:06;;;;;;;8.57;5.63;;;20.30;95.60;;;;;;5038444;28;20252;-81
2023/06/16 07:10:33;;;;;;;7.03;5.40;;;20.50;95.60;;;;;;5045409;28;20239;-81
2023/06/16 07:13:00;;;;;;;6.20;5.20;;;20.70;95.20;;;;;;5044040;28;20230;-81
2023/06/16 07:15:28;;;;;;;9.80;5.55;;;21.00;95.20;;;;;;5043458;28;20249;-81
2023/06/16 07:17:54;;;;;;;6.32;5.43;;;21.20;94.20;;;;;;5041675;28;20224;-83
2023/06/16 07:20:21;;;;;;;6.05;5.22;;;21.50;93.40;;;;;;5037753;28;20216;-81
2023/06/16 07:22:48;;;;;;;5.78;5.25;;;21.80;93.60;;;;;;5035884;28;20216;-82
2023/06/16 07:25:16;;;;;;;5.93;5.32;;;22.10;93.30;;;;;;5040710;28;20225;-81
2023/06/16 07:27:43;;;;;;;10.60;6.07;;;22.40;92.70;;;;;;5039105;28;20234;-81
2023/06/16 07:30:11;;;;;;;7.97;5.55;;;22.70;91.40;;;;;;5041330;28;20216;-82
2023/06/16 07:32:40;;;;;;;6.32;5.10;;;23.00;90.20;;;;;;5038813;28;20256;-82
2023/06/16 07:35:08;;;;;;;7.18;5.75;;;23.20;89.90;;;;;;5042080;28;20220;-83
2023/06/16 07:37:34;;;;;;;8.82;5.75;;;23.40;87.60;;;;;;5042495;28;20310;-83
2023/06/16 07:40:01;;;;;;;7.57;5.78;;;23.40;84.50;;;;;;5039919;28;20244;-81
2023/06/16 07:42:28;;;;;;;9.50;5.97;;;23.40;86.20;;;;;;5032481;28;20228;-83
2023/06/16 07:44:55;;;;;;;7.47;5.50;;;23.50;85.80;;;;;;5037429;28;20239;-82
2023/06/16 07:47:22;;;;;;;8.52;5.68;;;23.60;86.20;;;;;;5039329;28;20345;-82
2023/06/16 07:49:50;;;;;;;7.10;6.18;;;23.70;85.90;;;;;;5031402;28;20227;-82
2023/06/16 07:52:17;;;;;;;6.28;5.13;;;23.80;85.30;;;;;;5037610;28;20943;-85
2023/06/16 07:54:45;;;;;;;6.78;5.90;;;23.80;85.30;;;;;;5041870;28;20297;-82
2023/06/16 07:57:12;;;;;;;8.07;5.93;;;23.80;84.60;;;;;;5040297;28;20235;-82
2023/06/16 07:59:39;;;;;;;6.38;5.28;;;23.80;84.40;;;;;;5040532;28;21412;-82
2023/06/16 08:02:06;;;;;;;8.80;6.15;;;23.70;84.30;;;;;;5040300;28;20216;-82
2023/06/16 08:04:33;;;;;;;7.22;6.43;;;23.50;84.20;;;;;;5040963;28;20224;-83
2023/06/16 08:07:01;;;;;;;7.65;5.32;;;23.40;84.10;;;;;;5035357;28;20300;-82
2023/06/16 08:09:28;;;;;;;7.20;5.57;;;23.30;85.40;;;;;;5040003;28;20232;-82
2023/06/16 08:11:54;;;;;;;8.07;5.40;;;23.10;86.30;;;;;;5041499;28;20232;-83
2023/06/16 08:14:22;;;;;;;8.75;5.45;;;22.90;88.80;;;;;;5043590;28;20258;-85
2023/06/16 08:16:48;;;;;;;7.38;5.95;;;22.90;92.80;;;;;;5039268;28;20231;-82
2023/06/16 08:19:15;;;;;;;6.75;5.70;;;22.80;93.00;;;;;;5044966;28;20295;-82
2023/06/16 08:21:42;;;;;;;9.43;6.13;;;22.80;93.40;;;;;;5043674;28;20228;-83
2023/06/16 08:24:10;;;;;;;6.95;6.07;;;22.70;94.00;;;;;;5041042;28;20216;-82
2023/06/16 08:26:37;;;;;;;9.82;6.75;;;22.60;94.30;;;;;;5041778;28;20233;-82
2023/06/16 08:29:04;;;;;;;10.10;6.57;;;22.50;94.50;;;;;;5043509;28;20258;-83
2023/06/16 08:31:32;;;;;;;7.80;6.88;;;22.40;93.80;;;;;;5045519;28;20339;-81
2023/06/16 08:33:59;;;;;;;6.90;6.18;;;22.40;93.30;;;;;;5048164;28;20730;-83
2023/06/16 08:36:26;;;;;;;12.15;6.78;;;22.30;93.00;;;;;;5048845;28;20224;-81
2023/06/16 08:38:53;;;;;;;6.60;5.93;;;22.20;92.80;;;;;;5045481;28;20659;-83
2023/06/16 08:41:21;;;;;;;12.13;6.38;;;22.20;93.00;;;;;;5043712;28;20215;-83
2023/06/16 08:43:50;;;;;;;7.85;5.63;;;22.10;93.00;;;;;;5042201;28;20307;-82
2023/06/16 08:46:17;;;;;;;7.30;5.93;;;22.10;93.10;;;;;;5036710;28;20213;-85
2023/06/16 08:48:44;;;;;;;7.95;5.85;;;22.10;93.00;;;;;;5044897;28;21645;-82
2023/06/16 08:51:13;;;;;;;6.70;5.40;;;22.10;92.90;;;;;;5047165;28;20230;-82
2023/06/16 08:53:43;;;;;;;10.20;7.15;;;22.10;93.00;;;;;;5046627;28;20302;-81
2023/06/16 08:56:12;;;;;;;9.93;6.53;;;22.00;93.20;;;;;;5051526;28;20224;-81
2023/06/16 08:58:42;;;;;;;9.75;7.43;;;22.00;94.70;;;;;;5047738;28;20220;-81
2023/06/16 09:01:09;;;;;;;9.57;7.60;;;21.90;95.10;;;;;;5050233;28;20311;-82
2023/06/16 09:03:37;;;;;;;9.25;8.02;;;21.80;95.00;;;;;;5041524;28;20730;-82
2023/06/16 09:06:04;;;;;;;9.93;8.88;;;21.70;95.40;;;;;;5042842;28;20220;-81
2023/06/16 09:08:31;;;;;;;11.50;8.40;;;21.50;95.70;;;;;;5045170;28;20309;-82
2023/06/16 09:10:58;;;;;;;10.57;8.02;;;21.40;96.20;;;;;;5049186;28;20311;-81
2023/06/16 09:13:25;;;;;;;9.50;8.13;;;21.20;96.80;;;;;;5052100;28;20247;-79
2023/06/16 09:15:56;;;;;;;12.77;9.30;;;21.00;97.60;;;;;;5034017;28;20224;-80
2023/06/16 09:18:24;;;;;;;9.80;8.80;;;20.80;98.00;;;;;;5035606;28;20212;-79
2023/06/16 09:20:53;;;;;;;15.15;9.02;;;20.70;98.60;;;;;;5032473;28;20212;-79
2023/06/16 09:23:29;;;;;;;10.40;9.15;;;20.60;99.20;;;;;;5032520;28;20232;-78
2023/06/16 09:25:56;;;;;;;11.98;9.35;;;20.50;99.70;;;;;;5039882;28;20282;-78
2023/06/16 09:28:35;;;;;;;11.13;9.35;;;20.30;99.90;;;;;;5037074;28;20218;-78
2023/06/16 09:31:05;;;;;;;11.20;8.45;;;20.30;99.90;;;;;;5036393;28;20278;-79
2023/06/16 09:33:31;;;;;;;9.68;8.38;;;20.20;99.90;;;;;;5030632;28;20399;-79
2023/06/16 09:35:59;;;;;;;10.20;8.80;;;20.30;99.90;;;;;;5039756;28;20571;-80
2023/06/16 09:38:26;;;;;;;13.13;8.93;;;20.30;99.90;;;;;;5039195;28;20238;-79
2023/06/16 09:40:52;;;;;;;9.90;8.20;;;20.40;99.90;;;;;;5037094;28;20234;-79
2023/06/16 09:43:20;;;;;;;10.52;8.20;;;20.50;99.90;;;;;;5039381;28;20302;-79
2023/06/16 09:45:57;;;;;;;9.85;8.40;;;20.70;99.90;;;;;;5033246;28;20213;-79
2023/06/16 09:48:27;;;;;;;10.02;7.75;;;20.90;99.70;;;;;;5037166;28;22558;-79
2023/06/16 09:50:54;;;;;;;9.48;7.65;;;21.10;99.40;;;;;;5044375;28;20227;-79
2023/06/16 09:53:23;;;;;;;8.65;7.13;;;21.40;98.80;;;;;;5039229;28;20217;-79
2023/06/16 09:55:51;;;;;;;10.00;7.30;;;21.60;98.10;;;;;;5033614;28;20659;-80
2023/06/16 09:58:18;;;;;;;9.10;7.38;;;21.90;97.40;;;;;;5033420;28;20216;-79
2023/06/16 10:00:45;;;;;;;10.32;6.50;;;22.20;96.90;;;;;;5035134;28;20266;-79
2023/06/16 10:03:12;;;;;;;9.32;7.18;;;22.40;96.50;;;;;;5040214;28;20644;-79
2023/06/16 10:05:42;;;;;;;8.35;6.70;;;22.60;95.70;;;;;;5032531;28;20255;-79
2023/06/16 10:08:10;;;;;;;9.15;6.97;;;22.80;95.30;;;;;;5037916;28;20232;-79
2023/06/16 10:10:42;;;;;;;7.47;6.10;;;22.90;95.10;;;;;;5037994;28;20229;-79
2023/06/16 10:13:11;;;;;;;8.60;6.45;;;23.00;94.50;;;;;;5048957;28;20223;-79
2023/06/16 10:15:39;;;;;;;9.20;6.22;;;23.10;94.30;;;;;;5034889;28;20252;-79
2023/06/16 10:18:08;;;;;;;7.15;6.32;;;23.20;94.30;;;;;;5029160;28;20661;-79
2023/06/16 10:20:37;;;;;;;7.13;6.43;;;23.20;93.80;;;;;;5033773;28;20664;-79
2023/06/16 10:23:06;;;;;;;8.73;6.28;;;23.20;93.70;;;;;;5039108;28;20216;-79
2023/06/16 10:25:34;;;;;;;8.82;6.82;;;23.20;93.40;;;;;;5038758;28;20311;-79
2023/06/16 10:28:06;;;;;;;7.32;6.22;;;23.20;93.40;;;;;;5042268;28;20237;-79
2023/06/16 10:30:34;;;;;;;6.97;6.28;;;23.10;93.20;;;;;;5030417;28;20252;-79
2023/06/16 10:33:15;;;;;;;8.00;6.05;;;23.10;93.40;;;;;;5036760;28;20231;-79
2023/06/16 10:35:50;;;;;;;8.38;6.10;;;23.00;93.40;;;;;;5035559;28;20301;-79
2023/06/16 10:38:18;;;;;;;8.52;7.13;;;22.90;93.70;;;;;;5035137;28;20880;-80
2023/06/16 10:40:45;;;;;;;7.63;5.90;;;23.00;93.70;;;;;;5038251;28;20319;-79
2023/06/16 10:43:24;;;;;;;9.68;6.07;;;23.00;93.70;;;;;;5036203;28;20220;-79
2023/06/16 10:45:51;;;;;;;6.65;5.68;;;23.00;93.80;;;;;;5028860;28;20247;-79
2023/06/16 10:48:17;;;;;;;7.20;5.50;;;23.00;93.80;;;;;;5042753;28;20223;-79
2023/06/16 10:50:44;;;;;;;6.65;5.97;;;23.10;93.50;;;;;;5034538;28;20220;-80
2023/06/16 10:53:13;;;;;;;7.00;6.30;;;23.10;93.50;;;;;;5032345;28;20870;-79
2023/06/16 10:55:43;;;;;;;6.60;5.95;;;23.20;93.60;;;;;;5034226;28;20222;-79
2023/06/16 10:58:23;;;;;;;7.18;6.05;;;23.20;93.10;;;;;;5041995;28;20243;-79
2023/06/16 11:01:22;;;;;;;7.93;6.13;;;23.20;92.70;;;;;;5030102;28;20225;-79
2023/06/16 11:04:00;;;;;;;9.27;6.05;;;23.10;92.80;;;;;;5031274;28;20228;-79
2023/06/16 11:06:27;;;;;;;7.15;5.80;;;23.20;92.80;;;;;;5032142;28;20224;-79
2023/06/16 11:08:56;;;;;;;8.15;6.47;;;23.10;92.90;;;;;;5036893;28;20710;-79
2023/06/16 11:11:31;;;;;;;7.65;5.68;;;23.10;92.70;;;;;;5036516;28;20227;-79
2023/06/16 11:14:00;;;;;;;6.70;6.00;;;23.00;93.00;;;;;;5037097;28;20216;-79
2023/06/16 11:16:26;;;;;;;8.20;6.45;;;23.00;93.00;;;;;;5035125;28;20628;-79
2023/06/16 11:18:55;;;;;;;7.18;6.47;;;22.90;92.90;;;;;;5033609;28;20231;-80
2023/06/16 11:21:25;;;;;;;7.20;5.88;;;22.90;93.00;;;;;;5041118;28;20255;-79
2023/06/16 11:23:52;;;;;;;7.05;5.97;;;22.90;93.20;;;;;;5037685;28;20220;-79
2023/06/16 11:26:20;;;;;;;11.13;6.43;;;22.90;93.30;;;;;;5038736;28;20273;-79
2023/06/16 11:28:49;;;;;;;7.93;6.00;;;22.80;93.20;;;;;;5039801;28;20228;-79
2023/06/16 11:31:16;;;;;;;5.97;5.43;;;22.80;93.10;;;;;;5033907;28;20220;-79
2023/06/16 11:33:43;;;;;;;7.40;6.00;;;22.80;93.40;;;;;;5034115;28;20237;-79
2023/06/16 11:36:17;;;;;;;8.50;6.15;;;22.80;93.20;;;;;;5041071;28;20702;-79
2023/06/16 11:38:45;;;;;;;8.43;5.72;;;22.80;93.10;;;;;;5036179;28;20259;-79
2023/06/16 11:41:15;;;;;;;6.18;5.50;;;22.70;93.10;;;;;;5041478;28;20220;-79
2023/06/16 11:43:42;;;;;;;7.25;5.72;;;22.70;93.60;;;;;;5040151;28;20285;-79
2023/06/16 11:46:10;;;;;;;9.02;5.50;;;22.60;94.10;;;;;;5036763;28;20234;-80
2023/06/16 11:48:38;;;;;;;7.18;5.57;;;22.60;94.40;;;;;;5029656;28;20608;-80
2023/06/16 11:51:05;;;;;;;6.65;5.55;;;22.50;95.00;;;;;;5030465;28;20217;-78
2023/06/16 11:53:32;;;;;;;6.85;5.72;;;22.50;96.30;;;;;;5034573;28;20515;-79
2023/06/16 11:55:59;;;;;;;6.57;5.85;;;22.50;96.80;;;;;;5042745;28;20330;-79
2023/06/16 11:58:27;;;;;;;8.38;6.13;;;22.40;96.80;;;;;;5030741;28;20677;-79
2023/06/16 12:00:59;;;;;;;7.63;5.93;;;22.40;98.00;;;;;;5037885;28;20908;-79
2023/06/16 12:03:28;;;;;;;8.85;6.57;;;22.40;98.00;;;;;;5033511;28;20232;-79
2023/06/16 12:05:56;;;;;;;7.30;6.18;;;22.30;98.80;;;;;;5039207;28;20226;-79
2023/06/16 12:08:37;;;;;;;9.48;6.63;;;22.30;99.70;;;;;;5038492;28;20315;-79
2023/06/16 12:11:05;;;;;;;8.30;6.65;;;22.20;99.90;;;;;;5034705;28;20223;-78
2023/06/16 12:13:34;;;;;;;8.65;6.60;;;22.10;99.70;;;;;;5039340;28;20986;-79
2023/06/16 12:16:01;;;;;;;7.57;6.85;;;22.10;99.90;;;;;;5036780;28;20228;-80
2023/06/16 12:18:30;;;;;;;9.63;7.15;;;22.00;99.90;;;;;;5037729;28;20230;-79
2023/06/16 12:20:57;;;;;;;8.07;6.88;;;22.00;99.90;;;;;;5037919;28;20261;-79
2023/06/16 12:23:24;;;;;;;9.38;7.13;;;22.00;99.90;;;;;;5037340;28;20693;-80
2023/06/16 12:25:51;;;;;;;9.52;7.43;;;22.00;99.90;;;;;;5031040;28;20223;-80
2023/06/16 12:28:20;;;;;;;9.18;7.03;;;22.00;99.90;;;;;;5033412;28;20259;-79
2023/06/16 12:30:47;;;;;;;11.18;7.82;;;22.00;99.90;;;;;;5021721;28;20228;-80
2023/06/16 12:33:15;;;;;;;9.70;7.35;;;22.00;99.90;;;;;;5026792;28;20224;-79
2023/06/16 12:35:43;;;;;;;8.27;6.85;;;22.00;99.90;;;;;;5037360;28;20228;-79
2023/06/16 12:38:11;;;;;;;7.90;7.03;;;22.10;99.90;;;;;;5033714;28;20208;-80
2023/06/16 12:40:41;;;;;;;8.30;7.38;;;22.10;99.90;;;;;;5033585;28;20275;-79
2023/06/16 12:43:26;;;;;;;8.02;6.55;;;22.10;99.90;;;;;;5036266;28;20302;-79
2023/06/16 12:45:53;;;;;;;9.73;7.05;;;22.10;99.90;;;;;;5031617;28;20761;-79
2023/06/16 12:48:21;;;;;;;10.95;6.80;;;22.20;99.90;;;;;;5037239;28;20226;-79
2023/06/16 12:50:49;;;;;;;8.35;6.95;;;22.20;99.90;;;;;;5031528;28;20239;-79
2023/06/16 12:53:15;;;;;;;9.20;6.90;;;22.20;99.90;;;;;;5030623;28;20229;-79